Time;durP1;ratioP1;P1;durP2;ratioP2;P2;SDS_P1;SDS_P2;PMS_P1;PMS_P2;Temp;Humidity;BMP_temperature;BMP_pressure;BME280_temperature;BME280_humidity;BME280_pressure;Samples;Min_cycle;Max_cycle;Signal;HPM_P1;HPM_P2
2024/03/21 00:00:11;;;;;;;3.30;2.88;;;9.50;82.00;;;;;;5043578;28;20520;-63
2024/03/21 00:02:46;;;;;;;4.50;2.72;;;9.50;82.00;;;;;;5040579;28;20396;-63
2024/03/21 00:05:14;;;;;;;2.88;2.60;;;9.50;82.60;;;;;;5041373;28;20098;-63
2024/03/21 00:07:46;;;;;;;3.50;2.75;;;9.50;82.50;;;;;;5045609;28;20057;-63
2024/03/21 00:10:13;;;;;;;3.03;2.60;;;9.50;82.80;;;;;;5047558;28;20068;-61
2024/03/21 00:12:39;;;;;;;2.65;2.40;;;9.40;82.70;;;;;;5047046;28;20572;-63
2024/03/21 00:15:05;;;;;;;3.80;2.80;;;9.40;82.70;;;;;;5044399;28;20052;-63
2024/03/21 00:17:32;;;;;;;3.22;2.20;;;9.50;82.70;;;;;;5044902;28;20059;-63
2024/03/21 00:19:57;;;;;;;2.65;2.45;;;9.50;82.70;;;;;;5047853;28;20497;-62
2024/03/21 00:22:23;;;;;;;3.97;2.30;;;9.50;82.70;;;;;;5042582;28;20043;-62
2024/03/21 00:24:49;;;;;;;3.65;2.60;;;9.50;82.60;;;;;;5043444;28;20049;-62
2024/03/21 00:27:14;;;;;;;3.95;2.80;;;9.50;82.60;;;;;;5050375;28;20526;-62
2024/03/21 00:29:40;;;;;;;3.97;2.55;;;9.50;82.40;;;;;;5043898;28;20505;-60
2024/03/21 00:32:06;;;;;;;4.10;2.60;;;9.50;82.40;;;;;;5042669;28;20681;-61
2024/03/21 00:34:32;;;;;;;2.85;2.58;;;9.50;82.40;;;;;;5046199;28;20048;-61
2024/03/21 00:36:58;;;;;;;6.00;2.72;;;9.40;82.20;;;;;;5045760;28;20453;-62
2024/03/21 00:39:23;;;;;;;3.03;2.75;;;9.40;82.30;;;;;;5041614;28;20064;-61
2024/03/21 00:41:49;;;;;;;2.58;2.38;;;9.40;82.30;;;;;;5042593;28;20405;-61
2024/03/21 00:44:15;;;;;;;4.00;2.92;;;9.40;82.40;;;;;;5040822;28;20040;-61
2024/03/21 00:46:41;;;;;;;4.38;3.00;;;9.30;82.40;;;;;;5040883;28;20132;-62
2024/03/21 00:49:08;;;;;;;5.93;2.80;;;9.30;82.40;;;;;;5044877;28;20170;-62
2024/03/21 00:51:34;;;;;;;3.35;3.05;;;9.30;82.30;;;;;;5045701;28;20499;-61
2024/03/21 00:54:00;;;;;;;3.38;2.92;;;9.30;82.40;;;;;;5047295;28;20044;-62
2024/03/21 00:56:26;;;;;;;4.38;3.67;;;9.20;82.50;;;;;;5043512;28;20218;-61
2024/03/21 00:58:54;;;;;;;3.80;3.30;;;9.20;82.80;;;;;;5044843;28;20124;-60
2024/03/21 01:01:20;;;;;;;3.88;3.50;;;9.10;82.90;;;;;;5042898;28;20045;-60
2024/03/21 01:03:46;;;;;;;3.65;3.35;;;9.10;82.90;;;;;;5045924;28;20885;-60
2024/03/21 01:06:11;;;;;;;4.38;3.05;;;9.10;82.90;;;;;;5048126;28;20029;-61
2024/03/21 01:08:37;;;;;;;3.30;3.00;;;9.00;83.00;;;;;;5045320;28;20391;-62
2024/03/21 01:11:03;;;;;;;3.55;3.15;;;9.00;83.10;;;;;;5046826;28;20040;-62
2024/03/21 01:13:29;;;;;;;5.60;3.30;;;9.00;83.20;;;;;;5046041;28;20032;-62
2024/03/21 01:15:55;;;;;;;4.80;3.05;;;9.00;83.40;;;;;;5046186;28;20033;-60
2024/03/21 01:18:29;;;;;;;3.45;3.05;;;8.90;83.50;;;;;;5044400;28;20033;-60
2024/03/21 01:20:55;;;;;;;3.10;2.88;;;8.90;83.60;;;;;;5045457;28;20041;-61
2024/03/21 01:23:20;;;;;;;3.33;3.03;;;8.90;83.70;;;;;;5045984;28;20036;-60
2024/03/21 01:25:46;;;;;;;3.20;2.85;;;8.90;83.80;;;;;;5047671;28;20507;-61
2024/03/21 01:28:11;;;;;;;3.05;2.70;;;8.90;83.70;;;;;;5045832;28;20115;-62
2024/03/21 01:30:38;;;;;;;3.17;2.80;;;8.90;83.60;;;;;;5046977;28;20084;-61
2024/03/21 01:33:04;;;;;;;4.15;2.67;;;8.90;83.50;;;;;;5047447;28;20036;-62
2024/03/21 01:35:30;;;;;;;3.00;2.67;;;8.90;83.40;;;;;;5043930;28;20036;-61
2024/03/21 01:37:56;;;;;;;3.50;2.70;;;8.80;83.40;;;;;;5042909;28;20045;-62
2024/03/21 01:40:22;;;;;;;4.05;3.03;;;8.80;83.40;;;;;;5048408;28;20041;-62
2024/03/21 01:42:51;;;;;;;4.07;2.88;;;8.80;83.50;;;;;;5042181;28;20166;-61
2024/03/21 01:45:17;;;;;;;4.15;3.20;;;8.70;83.50;;;;;;5042348;28;20508;-62
2024/03/21 01:47:44;;;;;;;3.30;3.00;;;8.70;83.60;;;;;;5046992;28;20037;-62
2024/03/21 01:50:10;;;;;;;4.40;3.28;;;8.70;83.70;;;;;;5046377;28;20108;-62
2024/03/21 01:52:36;;;;;;;4.00;2.88;;;8.70;83.60;;;;;;5044609;28;20041;-61
2024/03/21 01:55:05;;;;;;;3.35;3.05;;;8.70;83.70;;;;;;5046997;28;20044;-62
2024/03/21 01:57:32;;;;;;;3.45;2.80;;;8.70;83.80;;;;;;5045383;28;20599;-62
2024/03/21 01:59:58;;;;;;;3.45;3.15;;;8.70;83.90;;;;;;5046457;28;20029;-62
2024/03/21 02:02:25;;;;;;;3.17;2.90;;;8.70;83.80;;;;;;5047565;28;20070;-62
2024/03/21 02:04:52;;;;;;;4.50;3.15;;;8.70;83.80;;;;;;5045033;28;20033;-62
2024/03/21 02:07:18;;;;;;;3.83;3.03;;;8.70;83.90;;;;;;5046596;28;20051;-62
2024/03/21 02:09:49;;;;;;;3.53;3.05;;;8.60;83.80;;;;;;5048050;28;20119;-62
2024/03/21 02:12:37;;;;;;;6.20;3.15;;;8.70;84.10;;;;;;5044151;28;20587;-62
2024/03/21 02:15:07;;;;;;;3.65;2.78;;;8.70;84.70;;;;;;5044642;28;21627;-61
2024/03/21 02:17:33;;;;;;;3.67;2.70;;;8.60;84.10;;;;;;5043102;28;20393;-62
2024/03/21 02:19:58;;;;;;;4.80;3.05;;;8.60;84.20;;;;;;5042164;28;20041;-62
2024/03/21 02:22:36;;;;;;;2.92;2.70;;;8.60;84.40;;;;;;5036319;28;20432;-61
2024/03/21 02:25:09;;;;;;;3.35;2.92;;;8.60;84.60;;;;;;5042704;28;20037;-61
2024/03/21 02:27:36;;;;;;;4.55;2.97;;;8.70;84.90;;;;;;5040662;28;20095;-62
2024/03/21 02:30:03;;;;;;;3.70;3.28;;;8.70;84.90;;;;;;5036791;28;20044;-62
2024/03/21 02:32:28;;;;;;;5.70;2.92;;;8.70;85.20;;;;;;5036571;28;20037;-62
2024/03/21 02:34:55;;;;;;;3.72;3.17;;;8.70;85.40;;;;;;5042169;28;20382;-62
2024/03/21 02:37:20;;;;;;;4.78;3.17;;;8.70;85.50;;;;;;5046644;28;20396;-62
2024/03/21 02:39:48;;;;;;;3.25;2.95;;;8.70;85.70;;;;;;5044384;28;20036;-62
2024/03/21 02:42:13;;;;;;;4.28;3.10;;;8.80;85.90;;;;;;5038896;28;20463;-63
2024/03/21 02:44:39;;;;;;;3.65;2.88;;;8.80;86.00;;;;;;5039723;28;20068;-62
2024/03/21 02:47:05;;;;;;;4.30;3.08;;;8.80;86.20;;;;;;5036735;28;20083;-62
2024/03/21 02:49:31;;;;;;;3.92;3.42;;;8.80;86.20;;;;;;5051104;28;20037;-61
2024/03/21 02:51:56;;;;;;;3.20;2.90;;;8.80;86.40;;;;;;5048793;28;20043;-62
2024/03/21 02:54:22;;;;;;;3.45;3.05;;;8.90;86.40;;;;;;5039602;28;20512;-62
2024/03/21 02:56:47;;;;;;;3.25;2.72;;;8.90;86.40;;;;;;5042018;28;20025;-62
2024/03/21 02:59:13;;;;;;;5.63;3.17;;;8.90;86.30;;;;;;5038491;28;20500;-61
2024/03/21 03:01:38;;;;;;;5.35;3.15;;;8.90;86.30;;;;;;5038076;28;20037;-62
2024/03/21 03:04:04;;;;;;;4.53;3.17;;;9.00;86.40;;;;;;5038757;28;20103;-63
2024/03/21 03:06:30;;;;;;;3.20;2.95;;;9.00;86.20;;;;;;5043630;28;20102;-62
2024/03/21 03:08:56;;;;;;;3.85;3.47;;;9.10;86.10;;;;;;5039956;28;20172;-62
2024/03/21 03:11:22;;;;;;;3.33;3.03;;;9.10;85.90;;;;;;5040628;28;20040;-62
2024/03/21 03:13:47;;;;;;;7.68;3.65;;;9.10;85.80;;;;;;5039266;28;20523;-62
2024/03/21 03:16:13;;;;;;;4.60;3.15;;;9.10;85.70;;;;;;5042216;28;20041;-61
2024/03/21 03:18:39;;;;;;;3.70;3.20;;;9.10;85.80;;;;;;5045079;28;20079;-62
2024/03/21 03:21:05;;;;;;;4.28;3.10;;;9.10;85.90;;;;;;5046300;28;20036;-61
2024/03/21 03:23:31;;;;;;;3.53;2.95;;;9.10;86.00;;;;;;5047045;28;20041;-62
2024/03/21 03:25:57;;;;;;;3.72;2.90;;;9.10;86.10;;;;;;5047272;28;20029;-62
2024/03/21 03:28:22;;;;;;;5.55;3.00;;;9.10;86.20;;;;;;5043029;28;20071;-62
2024/03/21 03:30:48;;;;;;;3.40;3.10;;;9.10;86.40;;;;;;5047780;28;20283;-62
2024/03/21 03:35:58;;;;;;;4.35;3.20;;;9.20;86.40;;;;;;5046655;28;20519;-62
2024/03/21 03:38:23;;;;;;;3.60;2.83;;;9.20;86.20;;;;;;5045362;28;20037;-62
2024/03/21 03:40:49;;;;;;;3.22;2.92;;;9.20;86.30;;;;;;5045287;28;20562;-61
2024/03/21 03:43:14;;;;;;;3.83;3.35;;;9.20;87.20;;;;;;5043856;28;20075;-60
2024/03/21 03:45:41;;;;;;;3.83;3.47;;;9.30;86.40;;;;;;5041769;28;20037;-62
2024/03/21 03:48:07;;;;;;;5.70;3.50;;;9.30;86.40;;;;;;5049245;28;20033;-61
2024/03/21 03:50:32;;;;;;;4.05;3.22;;;9.30;86.60;;;;;;5048047;28;20132;-62
2024/03/21 03:52:58;;;;;;;4.30;3.58;;;9.30;86.70;;;;;;5046839;28;20584;-62
2024/03/21 03:55:23;;;;;;;4.80;3.20;;;9.30;86.80;;;;;;5043867;28;20120;-62
2024/03/21 03:57:49;;;;;;;4.40;3.17;;;9.30;86.80;;;;;;5046906;28;20029;-62
2024/03/21 04:00:15;;;;;;;4.85;3.40;;;9.30;86.80;;;;;;5036642;28;20113;-61
2024/03/21 04:02:43;;;;;;;4.32;3.53;;;9.30;86.90;;;;;;5042053;28;20045;-62
2024/03/21 04:05:09;;;;;;;3.75;3.33;;;9.40;86.90;;;;;;5049194;28;20482;-62
2024/03/21 04:07:36;;;;;;;4.68;3.53;;;9.40;86.90;;;;;;5045921;28;20029;-62
2024/03/21 04:10:02;;;;;;;3.55;3.20;;;9.40;86.90;;;;;;5043643;28;20049;-62
2024/03/21 04:12:27;;;;;;;5.20;3.15;;;9.50;86.90;;;;;;5045103;28;21100;-62
2024/03/21 04:14:53;;;;;;;3.72;3.35;;;9.50;86.90;;;;;;5042142;28;20072;-62
2024/03/21 04:17:19;;;;;;;3.90;3.38;;;9.50;86.90;;;;;;5043411;28;20127;-60
2024/03/21 04:19:45;;;;;;;5.80;3.65;;;9.60;87.00;;;;;;5045033;28;20111;-62
2024/03/21 04:22:11;;;;;;;4.82;3.72;;;9.60;87.10;;;;;;5047328;28;20033;-62
2024/03/21 04:24:41;;;;;;;4.90;4.20;;;9.60;87.00;;;;;;5045792;28;20471;-62
2024/03/21 04:27:10;;;;;;;5.35;4.78;;;9.60;87.00;;;;;;5039755;28;20037;-62
2024/03/21 04:29:36;;;;;;;5.22;4.50;;;9.70;86.90;;;;;;5037838;28;20132;-61
2024/03/21 04:32:01;;;;;;;6.18;4.22;;;9.70;86.90;;;;;;5044144;28;20408;-61
2024/03/21 04:34:27;;;;;;;7.20;5.32;;;9.70;86.90;;;;;;5043694;28;20435;-62
2024/03/21 04:36:52;;;;;;;9.80;5.78;;;9.70;87.00;;;;;;5038965;28;20467;-62
2024/03/21 04:39:18;;;;;;;6.75;5.32;;;9.60;87.00;;;;;;5040498;28;20037;-62
2024/03/21 04:41:44;;;;;;;6.13;5.28;;;9.70;87.10;;;;;;5044873;28;20053;-62
2024/03/21 04:44:09;;;;;;;5.68;4.97;;;9.70;87.10;;;;;;5038323;28;20076;-62
2024/03/21 04:46:35;;;;;;;6.00;4.75;;;9.70;87.10;;;;;;5040676;28;20037;-62
2024/03/21 04:49:00;;;;;;;5.78;4.70;;;9.80;87.20;;;;;;5038138;28;20505;-62
2024/03/21 04:51:26;;;;;;;6.95;4.70;;;9.80;87.30;;;;;;5050712;28;20156;-62
2024/03/21 04:53:52;;;;;;;5.63;4.82;;;9.80;87.20;;;;;;5042954;28;20443;-60
2024/03/21 04:56:17;;;;;;;5.55;4.65;;;9.80;87.10;;;;;;5042698;28;20450;-61
2024/03/21 04:58:43;;;;;;;7.65;4.78;;;9.90;87.10;;;;;;5040170;28;20527;-62
2024/03/21 05:01:09;;;;;;;5.90;4.90;;;9.90;87.10;;;;;;5041369;28;20045;-62
2024/03/21 05:03:36;;;;;;;6.38;4.72;;;9.80;86.90;;;;;;5047873;28;20033;-62
2024/03/21 05:06:02;;;;;;;5.32;4.82;;;9.90;86.90;;;;;;5047700;28;20033;-62
2024/03/21 05:08:28;;;;;;;6.85;4.93;;;9.90;86.80;;;;;;5038918;28;20052;-61
2024/03/21 05:10:53;;;;;;;5.80;4.72;;;9.90;86.70;;;;;;5043832;28;20520;-61
2024/03/21 05:13:19;;;;;;;9.20;4.78;;;9.90;86.60;;;;;;5038118;28;20799;-62
2024/03/21 05:15:49;;;;;;;6.72;4.75;;;10.00;86.60;;;;;;5046690;28;20082;-62
2024/03/21 05:18:15;;;;;;;8.60;4.47;;;10.00;86.60;;;;;;5046749;28;20130;-62
2024/03/21 05:20:40;;;;;;;6.38;5.13;;;10.00;86.40;;;;;;5047437;28;20508;-62
2024/03/21 05:23:06;;;;;;;6.32;4.88;;;10.10;86.20;;;;;;5039784;28;20501;-62
2024/03/21 05:25:34;;;;;;;6.10;5.10;;;10.10;86.00;;;;;;5043927;28;20033;-61
2024/03/21 05:28:00;;;;;;;7.20;4.82;;;10.10;86.00;;;;;;5037890;28;20033;-62
2024/03/21 05:30:25;;;;;;;6.78;4.93;;;10.10;86.00;;;;;;5040750;28;20041;-61
2024/03/21 05:32:51;;;;;;;7.32;4.35;;;10.10;85.90;;;;;;5043117;28;20504;-62
2024/03/21 05:35:17;;;;;;;6.80;4.93;;;10.10;85.90;;;;;;5043657;28;20037;-63
2024/03/21 05:37:42;;;;;;;6.97;5.05;;;10.10;86.00;;;;;;5045149;28;20567;-60
2024/03/21 05:40:09;;;;;;;6.47;5.00;;;10.20;86.40;;;;;;5043133;28;20508;-59
2024/03/21 05:42:35;;;;;;;8.13;5.55;;;10.20;87.10;;;;;;5046105;28;20045;-59
2024/03/21 05:45:01;;;;;;;6.18;5.20;;;10.20;87.70;;;;;;5048285;28;20500;-61
2024/03/21 05:47:26;;;;;;;5.55;4.50;;;10.30;88.00;;;;;;5046726;28;20090;-61
2024/03/21 05:49:52;;;;;;;5.28;4.13;;;10.40;87.90;;;;;;5045746;28;20091;-59
2024/03/21 05:52:18;;;;;;;5.32;4.13;;;10.40;87.40;;;;;;5046486;28;20472;-61
2024/03/21 05:54:48;;;;;;;6.43;3.90;;;10.50;87.00;;;;;;5044270;28;20045;-61
2024/03/21 05:57:14;;;;;;;8.00;4.32;;;10.60;87.60;;;;;;5047236;28;20541;-61
2024/03/21 05:59:40;;;;;;;6.60;4.18;;;10.60;86.40;;;;;;5045586;28;20040;-61
2024/03/21 06:02:05;;;;;;;7.70;4.80;;;10.60;86.40;;;;;;5046040;28;20385;-61
2024/03/21 06:04:31;;;;;;;7.07;5.10;;;10.70;86.50;;;;;;5042797;28;20060;-62
2024/03/21 06:06:56;;;;;;;7.47;4.97;;;10.70;86.40;;;;;;5049772;28;20067;-59
2024/03/21 06:09:24;;;;;;;6.80;5.00;;;10.70;86.20;;;;;;5046236;28;20397;-61
2024/03/21 06:11:50;;;;;;;7.80;4.90;;;10.80;86.10;;;;;;5038177;28;20160;-61
2024/03/21 06:14:15;;;;;;;9.65;4.88;;;10.80;86.00;;;;;;5041558;28;20042;-60
2024/03/21 06:16:41;;;;;;;8.02;5.13;;;10.80;85.90;;;;;;5044724;28;20038;-61
2024/03/21 06:19:07;;;;;;;12.77;5.43;;;10.80;85.90;;;;;;5048028;28;20838;-59
2024/03/21 06:21:32;;;;;;;21.77;9.25;;;10.80;85.90;;;;;;5049787;28;20079;-59
2024/03/21 06:23:58;;;;;;;38.15;13.95;;;10.90;86.00;;;;;;5038793;28;20261;-61
2024/03/21 06:26:23;;;;;;;25.20;10.63;;;10.90;86.10;;;;;;5047984;28;20337;-61
2024/03/21 06:28:49;;;;;;;12.73;7.90;;;10.90;86.20;;;;;;5046330;28;20033;-61
2024/03/21 06:31:14;;;;;;;9.20;6.13;;;10.90;86.10;;;;;;5041004;28;20021;-59
2024/03/21 06:33:40;;;;;;;8.93;5.85;;;11.00;86.00;;;;;;5044172;28;20087;-61
2024/03/21 06:36:06;;;;;;;6.07;5.25;;;11.00;86.00;;;;;;5048648;28;20540;-60
2024/03/21 06:38:31;;;;;;;6.00;5.13;;;11.00;85.90;;;;;;5050406;28;20034;-60
2024/03/21 06:40:57;;;;;;;5.93;5.20;;;11.10;86.00;;;;;;5048889;28;20092;-62
2024/03/21 06:43:22;;;;;;;5.47;4.85;;;11.10;86.10;;;;;;5046608;28;20044;-61
2024/03/21 06:45:55;;;;;;;7.63;5.05;;;11.20;86.30;;;;;;5041474;28;20033;-61
2024/03/21 06:48:21;;;;;;;7.13;5.18;;;11.20;86.20;;;;;;5044855;28;20128;-61
2024/03/21 06:50:46;;;;;;;7.60;4.82;;;11.20;86.00;;;;;;5050438;28;20121;-61
2024/03/21 06:53:12;;;;;;;5.28;4.35;;;11.20;86.20;;;;;;5050801;28;20098;-60
2024/03/21 06:55:37;;;;;;;7.05;4.63;;;11.30;87.30;;;;;;5047346;28;20037;-59
2024/03/21 06:58:03;;;;;;;5.82;4.47;;;11.40;86.70;;;;;;5048977;28;20041;-61
2024/03/21 07:00:29;;;;;;;7.15;5.10;;;11.40;86.90;;;;;;5047860;28;20029;-61
2024/03/21 07:02:55;;;;;;;5.45;4.32;;;11.50;87.00;;;;;;5049999;28;20033;-61
2024/03/21 07:05:24;;;;;;;5.50;4.47;;;11.50;87.10;;;;;;5052693;28;20051;-59
2024/03/21 07:07:51;;;;;;;5.25;4.63;;;11.60;87.30;;;;;;5050998;28;20143;-61
2024/03/21 07:10:17;;;;;;;4.93;4.07;;;11.70;87.50;;;;;;5054024;28;20127;-61
2024/03/21 07:12:43;;;;;;;5.05;4.15;;;11.70;87.60;;;;;;5051973;28;20037;-60
2024/03/21 07:15:09;;;;;;;5.38;4.25;;;11.70;87.70;;;;;;5053124;28;20059;-61
2024/03/21 07:17:35;;;;;;;6.40;3.85;;;11.80;88.30;;;;;;5051588;28;20033;-61
2024/03/21 07:20:00;;;;;;;5.30;3.90;;;11.90;88.10;;;;;;5050678;28;20492;-62
2024/03/21 07:22:26;;;;;;;4.95;4.03;;;11.90;88.10;;;;;;5049981;28;20052;-61
2024/03/21 07:24:51;;;;;;;8.45;4.55;;;12.00;88.50;;;;;;5045697;28;20496;-61
2024/03/21 07:27:18;;;;;;;7.47;4.40;;;12.00;88.50;;;;;;5049920;28;20127;-61
2024/03/21 07:29:43;;;;;;;6.28;4.18;;;12.10;88.70;;;;;;5049797;28;20057;-61
2024/03/21 07:32:09;;;;;;;10.20;4.88;;;12.10;88.50;;;;;;5049193;28;20099;-61
2024/03/21 07:34:35;;;;;;;7.53;5.00;;;12.20;88.50;;;;;;5048691;28;20074;-61
2024/03/21 07:37:01;;;;;;;7.97;4.72;;;12.20;88.40;;;;;;5049781;28;20115;-63
2024/03/21 07:39:26;;;;;;;6.50;4.60;;;12.20;88.40;;;;;;5046440;28;20468;-61
2024/03/21 07:41:52;;;;;;;6.15;4.30;;;12.20;88.40;;;;;;5049736;28;20040;-61
2024/03/21 07:44:19;;;;;;;7.75;4.50;;;12.20;88.30;;;;;;5046980;28;20057;-61
2024/03/21 07:46:44;;;;;;;6.95;4.13;;;12.20;88.30;;;;;;5048467;28;20116;-61
2024/03/21 07:49:10;;;;;;;6.50;4.28;;;12.30;88.40;;;;;;5049900;28;20162;-61
2024/03/21 07:51:36;;;;;;;4.63;4.03;;;12.30;88.60;;;;;;5046875;28;20073;-61
2024/03/21 07:54:03;;;;;;;4.60;3.97;;;12.30;88.60;;;;;;5051113;28;20130;-61
2024/03/21 07:56:29;;;;;;;5.43;3.75;;;12.30;88.80;;;;;;5045304;28;20405;-62
2024/03/21 07:58:54;;;;;;;4.78;4.28;;;12.30;88.80;;;;;;5045978;28;20033;-62
2024/03/21 08:01:23;;;;;;;4.85;4.28;;;12.30;89.00;;;;;;5046869;28;20033;-61
2024/03/21 08:03:49;;;;;;;4.70;3.67;;;12.30;89.20;;;;;;5048661;28;20037;-62
2024/03/21 08:06:15;;;;;;;4.80;3.97;;;12.40;89.70;;;;;;5051368;28;20041;-62
2024/03/21 08:08:41;;;;;;;4.95;4.40;;;12.40;89.20;;;;;;5046905;28;20564;-62
2024/03/21 08:11:06;;;;;;;4.85;3.90;;;12.40;89.20;;;;;;5047776;28;20164;-62
2024/03/21 08:13:32;;;;;;;4.40;3.90;;;12.40;89.20;;;;;;5050181;28;20102;-61
2024/03/21 08:15:58;;;;;;;4.63;4.18;;;12.40;89.20;;;;;;5042517;28;20406;-62
2024/03/21 08:18:23;;;;;;;6.78;3.80;;;12.40;89.30;;;;;;5050783;28;20060;-63
2024/03/21 08:20:51;;;;;;;5.88;3.60;;;12.40;89.40;;;;;;5042503;28;20029;-60
2024/03/21 08:23:17;;;;;;;5.10;4.07;;;12.40;89.40;;;;;;5047049;28;20392;-62
2024/03/21 08:25:43;;;;;;;5.05;4.03;;;12.40;89.50;;;;;;5047802;28;20644;-62
2024/03/21 08:28:09;;;;;;;5.00;4.00;;;12.40;89.60;;;;;;5043416;28;20038;-60
2024/03/21 08:30:35;;;;;;;4.72;3.80;;;12.40;89.70;;;;;;5050000;28;20033;-60
2024/03/21 08:33:00;;;;;;;4.97;4.03;;;12.40;89.70;;;;;;5050530;28;20025;-61
2024/03/21 08:35:26;;;;;;;5.30;3.67;;;12.40;89.70;;;;;;5048463;28;20056;-62
2024/03/21 08:37:52;;;;;;;5.97;3.90;;;12.40;90.00;;;;;;5047429;28;20393;-59
2024/03/21 08:40:18;;;;;;;6.03;3.67;;;12.40;90.00;;;;;;5045142;28;20060;-60
2024/03/21 08:42:45;;;;;;;5.45;3.65;;;12.40;90.00;;;;;;5048917;28;20439;-61
2024/03/21 08:45:10;;;;;;;6.00;3.70;;;12.40;90.00;;;;;;5049867;28;20572;-61
2024/03/21 08:47:37;;;;;;;6.40;3.58;;;12.40;90.10;;;;;;5047378;28;20037;-62
2024/03/21 08:50:03;;;;;;;7.15;4.15;;;12.40;90.20;;;;;;5048143;28;20400;-61
2024/03/21 08:52:29;;;;;;;6.43;4.05;;;12.40;90.20;;;;;;5047949;28;20037;-61
2024/03/21 08:54:55;;;;;;;5.75;4.40;;;12.50;90.30;;;;;;5045765;28;20036;-61
2024/03/21 08:57:20;;;;;;;7.25;4.40;;;12.50;90.40;;;;;;5049636;28;20041;-60
2024/03/21 08:59:47;;;;;;;6.20;4.65;;;12.50;90.30;;;;;;5049356;28;20025;-59
2024/03/21 09:02:13;;;;;;;7.40;4.85;;;12.50;90.40;;;;;;5048676;28;20041;-60
2024/03/21 09:04:39;;;;;;;6.32;4.50;;;12.50;90.40;;;;;;5042668;28;20037;-58
2024/03/21 09:07:05;;;;;;;5.53;4.25;;;12.60;90.40;;;;;;5048596;28;20515;-61
2024/03/21 09:09:36;;;;;;;5.68;4.70;;;12.60;90.40;;;;;;5043059;28;20036;-60
2024/03/21 09:12:03;;;;;;;5.13;4.53;;;12.60;90.50;;;;;;5047278;28;20029;-59
2024/03/21 09:14:29;;;;;;;5.55;3.95;;;12.60;90.50;;;;;;5049764;28;20102;-60
2024/03/21 09:16:54;;;;;;;7.57;3.70;;;12.60;90.50;;;;;;5049600;28;20524;-60
2024/03/21 09:19:20;;;;;;;4.60;3.70;;;12.70;90.60;;;;;;5049313;28;20047;-59
2024/03/21 09:21:46;;;;;;;4.95;3.92;;;12.70;90.60;;;;;;5047383;28;20037;-59
2024/03/21 09:24:12;;;;;;;5.78;3.95;;;12.70;90.70;;;;;;5047613;28;20124;-59
2024/03/21 09:26:40;;;;;;;4.65;4.00;;;12.70;90.80;;;;;;5050943;28;20113;-59
2024/03/21 09:29:05;;;;;;;5.30;3.80;;;12.90;90.80;;;;;;5049945;28;20058;-61
2024/03/21 09:31:31;;;;;;;5.70;4.10;;;12.90;90.80;;;;;;5047110;28;20029;-60
2024/03/21 09:33:58;;;;;;;7.82;3.85;;;12.90;90.80;;;;;;5047533;28;20037;-61
2024/03/21 09:36:26;;;;;;;4.65;4.07;;;13.00;90.80;;;;;;5047084;28;20063;-60
2024/03/21 09:38:52;;;;;;;4.63;3.72;;;13.00;90.80;;;;;;5049176;28;20043;-59
2024/03/21 09:41:17;;;;;;;4.32;3.80;;;13.10;90.90;;;;;;5050552;28;20037;-60
2024/03/21 09:43:43;;;;;;;5.28;3.90;;;13.10;91.00;;;;;;5046951;28;20036;-61
2024/03/21 09:46:15;;;;;;;4.72;3.60;;;13.30;91.20;;;;;;5049563;28;20033;-61
2024/03/21 09:48:40;;;;;;;5.93;4.00;;;13.30;91.40;;;;;;5045670;28;20533;-61
2024/03/21 09:51:20;;;;;;;4.10;3.70;;;13.40;91.40;;;;;;5047554;28;20051;-60
2024/03/21 09:53:46;;;;;;;4.40;4.00;;;13.60;91.70;;;;;;5049634;28;20124;-61
2024/03/21 09:56:16;;;;;;;5.75;3.67;;;13.70;91.50;;;;;;5047915;28;20071;-59
2024/03/21 09:58:41;;;;;;;4.00;3.60;;;13.80;91.40;;;;;;5046470;28;20136;-60
2024/03/21 10:01:33;;;;;;;5.65;3.53;;;14.00;91.20;;;;;;5048415;28;20119;-61
2024/03/21 10:03:59;;;;;;;4.75;3.80;;;14.10;91.30;;;;;;5042577;28;20036;-61
2024/03/21 10:06:25;;;;;;;5.18;3.95;;;14.20;91.10;;;;;;5049262;28;20025;-60
2024/03/21 10:08:51;;;;;;;4.20;3.70;;;14.30;91.20;;;;;;5047367;28;20086;-61
2024/03/21 10:11:19;;;;;;;5.00;3.97;;;14.40;91.10;;;;;;5044224;28;20041;-60
2024/03/21 10:13:45;;;;;;;6.13;3.70;;;14.50;90.90;;;;;;5041060;28;20443;-60
2024/03/21 10:16:12;;;;;;;4.03;3.28;;;14.70;90.70;;;;;;5040285;28;20059;-60
2024/03/21 10:18:41;;;;;;;3.92;3.35;;;14.80;90.50;;;;;;5040969;28;20040;-60
2024/03/21 10:21:22;;;;;;;3.53;3.20;;;14.90;90.30;;;;;;5047747;28;20033;-60
2024/03/21 10:23:48;;;;;;;4.35;3.13;;;15.00;90.10;;;;;;5045989;28;20037;-60
2024/03/21 10:26:15;;;;;;;4.18;3.40;;;15.10;89.80;;;;;;5046809;28;20120;-60
2024/03/21 10:28:42;;;;;;;4.10;3.53;;;15.20;89.50;;;;;;5046457;28;20577;-59
2024/03/21 10:31:13;;;;;;;4.93;3.80;;;15.20;89.20;;;;;;5046837;28;20053;-61
2024/03/21 10:33:39;;;;;;;3.80;3.45;;;15.30;88.80;;;;;;5048410;28;20087;-62
2024/03/21 10:36:05;;;;;;;4.53;3.65;;;15.40;88.50;;;;;;5046744;28;20033;-62
2024/03/21 10:38:31;;;;;;;4.35;3.60;;;15.40;88.10;;;;;;5048910;28;20037;-62
2024/03/21 10:41:01;;;;;;;4.22;3.38;;;15.50;87.90;;;;;;5045972;28;20037;-60
2024/03/21 10:43:29;;;;;;;4.43;3.50;;;15.60;87.60;;;;;;5046262;28;20044;-61
2024/03/21 10:45:55;;;;;;;5.20;3.60;;;15.60;87.40;;;;;;5047750;28;20480;-61
2024/03/21 10:48:32;;;;;;;5.00;3.70;;;15.70;87.20;;;;;;5046656;28;20060;-62
2024/03/21 10:51:12;;;;;;;5.32;3.58;;;15.70;86.80;;;;;;5047531;28;20900;-62
2024/03/21 10:53:37;;;;;;;4.03;3.50;;;15.80;86.90;;;;;;5047890;28;20102;-61
2024/03/21 10:56:08;;;;;;;4.40;3.15;;;15.80;86.50;;;;;;5046972;28;20574;-62
2024/03/21 10:58:43;;;;;;;3.63;3.30;;;15.80;86.00;;;;;;5047726;28;20079;-61
2024/03/21 11:01:10;;;;;;;6.57;3.25;;;15.80;85.60;;;;;;5043714;28;20036;-61
2024/03/21 11:03:51;;;;;;;3.63;3.03;;;15.90;85.70;;;;;;5038273;28;20352;-61
2024/03/21 11:06:21;;;;;;;3.53;3.20;;;15.90;85.80;;;;;;5047800;28;21271;-61
2024/03/21 11:08:54;;;;;;;8.98;3.10;;;16.00;85.70;;;;;;5043350;28;20032;-60
2024/03/21 11:11:21;;;;;;;8.40;3.60;;;16.00;85.50;;;;;;5043817;28;20111;-60
2024/03/21 11:13:47;;;;;;;5.75;3.45;;;16.00;85.50;;;;;;5047202;28;20061;-59
2024/03/21 11:16:13;;;;;;;4.22;3.38;;;16.10;85.00;;;;;;5039801;28;20052;-61
2024/03/21 11:18:40;;;;;;;4.45;3.50;;;16.10;84.90;;;;;;5044530;28;20037;-59
2024/03/21 11:21:11;;;;;;;4.63;3.13;;;16.20;84.50;;;;;;5045447;28;20033;-59
2024/03/21 11:23:39;;;;;;;4.43;3.20;;;16.20;84.20;;;;;;5042563;28;20068;-60
2024/03/21 11:26:07;;;;;;;4.07;3.22;;;16.20;84.10;;;;;;5044236;28;20034;-62
2024/03/21 11:28:33;;;;;;;4.28;3.35;;;16.20;84.60;;;;;;5040142;28;20068;-61
2024/03/21 11:31:02;;;;;;;3.60;3.00;;;16.30;83.60;;;;;;5044196;28;20120;-61
2024/03/21 11:33:29;;;;;;;3.75;3.10;;;16.30;83.60;;;;;;5042386;28;20036;-61
2024/03/21 11:35:54;;;;;;;5.20;3.40;;;16.30;83.40;;;;;;5045510;28;20037;-62
2024/03/21 11:38:21;;;;;;;4.45;3.05;;;16.40;83.40;;;;;;5045987;28;20048;-60
2024/03/21 11:40:48;;;;;;;6.93;3.22;;;16.40;83.40;;;;;;5045843;28;20029;-60
2024/03/21 11:43:15;;;;;;;5.32;3.33;;;16.40;83.60;;;;;;5050750;28;20051;-61
2024/03/21 11:45:40;;;;;;;5.10;3.28;;;16.50;83.60;;;;;;5053730;28;20033;-61
2024/03/21 11:48:08;;;;;;;3.42;3.13;;;16.60;83.20;;;;;;5046506;28;20025;-61
2024/03/21 11:50:34;;;;;;;3.45;2.95;;;16.60;81.90;;;;;;5045477;28;20099;-60
2024/03/21 11:53:00;;;;;;;3.85;3.45;;;16.70;81.90;;;;;;5048767;28;20037;-60
2024/03/21 11:55:25;;;;;;;3.33;3.03;;;16.70;80.50;;;;;;5048051;28;20024;-62
2024/03/21 11:57:52;;;;;;;5.35;3.25;;;16.80;81.00;;;;;;5050091;28;20025;-60
2024/03/21 12:00:18;;;;;;;4.13;3.28;;;16.90;80.50;;;;;;5044896;28;20044;-61
2024/03/21 12:02:43;;;;;;;5.13;3.10;;;16.90;79.10;;;;;;5049527;28;20037;-59
2024/03/21 12:05:09;;;;;;;6.30;3.58;;;16.90;78.20;;;;;;5048423;28;20040;-61
2024/03/21 12:07:41;;;;;;;3.25;2.88;;;17.00;77.30;;;;;;5049185;28;20102;-62
2024/03/21 12:10:08;;;;;;;3.17;2.88;;;17.00;77.70;;;;;;5050352;28;20075;-61
2024/03/21 12:12:33;;;;;;;5.80;3.28;;;17.00;77.60;;;;;;5044577;28;20045;-62
2024/03/21 12:14:59;;;;;;;3.67;2.97;;;17.00;77.20;;;;;;5050056;28;20071;-61
2024/03/21 12:17:24;;;;;;;3.42;2.90;;;16.90;77.60;;;;;;5050936;28;20053;-62
2024/03/21 12:19:50;;;;;;;5.80;3.28;;;17.00;77.70;;;;;;5045627;28;20052;-61
2024/03/21 12:22:17;;;;;;;4.40;3.13;;;17.00;77.70;;;;;;5052537;28;20033;-59
2024/03/21 12:24:43;;;;;;;3.50;3.05;;;17.00;77.90;;;;;;5048895;28;20076;-61
2024/03/21 12:27:09;;;;;;;5.60;3.00;;;17.00;77.90;;;;;;5050171;28;20485;-61
2024/03/21 12:29:35;;;;;;;3.97;3.17;;;17.10;77.20;;;;;;5047243;28;20554;-61
2024/03/21 12:32:00;;;;;;;3.83;2.55;;;17.00;73.70;;;;;;5047091;28;20033;-61
2024/03/21 12:34:26;;;;;;;6.35;2.92;;;17.10;73.30;;;;;;5051287;28;20515;-60
2024/03/21 12:36:52;;;;;;;4.40;2.90;;;17.20;72.20;;;;;;5048592;28;20044;-62
2024/03/21 12:39:19;;;;;;;2.88;2.60;;;17.20;71.60;;;;;;5048547;28;20040;-61
2024/03/21 12:41:45;;;;;;;2.92;2.63;;;17.20;68.60;;;;;;5049483;28;20504;-61
2024/03/21 12:44:13;;;;;;;3.30;2.20;;;17.20;68.40;;;;;;5048604;28;20033;-62
2024/03/21 12:46:39;;;;;;;5.22;3.00;;;17.30;67.60;;;;;;5050762;28;20033;-62
2024/03/21 12:49:05;;;;;;;3.78;2.33;;;17.30;67.00;;;;;;5047876;28;20025;-62